Terminal Aerodrome Forecast
Issued by NWS New Orleans/Baton Rouge, LA

Home | Current Version | Previous Version | Text Only | Print | Product List | Glossary On
Versions: 1 2 3 4 5 6 7 8 9 10 11 12 13 14 15 16 17 18 19 20 21 22 23 24 25 26 27 28 29 30 31 32 33 34
000
FTUS44 KLIX 301721
TAFNEW
TAF
KNEW 301721Z 3018/0118 19014G18KT 1SM +TSRA BR FEW006CB OVC012
     FM301830 24018G27KT 5SM -SHRA VCTS OVC030CB
     FM301900 30008KT P6SM VCSH BKN060
     FM010000 27009KT P6SM BKN080
     FM010900 29004KT P6SM SKC=

USA.gov is the U.S. government's official web portal to all federal, state and local government web resources and services.